GWL weather

Gwalior Airport
Gwalior, Madhya Pradesh, India

Public forecast

Using degrees Celsius for public forecast. Weather courtesy of forecast.io.

Current aviation weather report (METAR) for Gwalior Airport

Retrieved 2020/08/07 14:30 UTC (30 minutes ago):

VIGR 071430Z 04002KT 6000 FEW025 FEW030TCU SCT100 30/28 Q1000 TEMPO -RA

Aviation forecast (TAF) for Gwalior Airport

Retrieved 2020/08/07 12:30 UTC (3 hours ago):

TAF VIGR 070930Z 0712/0800 09008KT 6000 SCT020 FEW025TCU BKN080 TEMPO 0712/0715 11015G25KT 3000 RA SCT015 SCT025 FEW030TCU BKN080